createdAt,value
2018-02-07T00:00:24.569Z,-0.08
2018-02-07T00:01:24.582Z,-0.11
2018-02-07T00:02:24.551Z,-0.11
2018-02-07T00:03:24.556Z,-0.07
2018-02-07T00:04:24.450Z,-0.11
2018-02-07T00:05:24.437Z,-0.11
2018-02-07T00:06:24.429Z,-0.12
2018-02-07T00:07:24.408Z,-0.11
2018-02-07T00:08:24.433Z,-0.12
2018-02-07T00:09:24.450Z,-0.14
2018-02-07T00:10:24.381Z,-0.14
2018-02-07T00:11:24.408Z,-0.12
2018-02-07T00:12:24.411Z,-0.14
2018-02-07T00:13:24.422Z,-0.14
2018-02-07T00:14:24.456Z,-0.15
2018-02-07T00:15:24.391Z,-0.15
2018-02-07T00:16:24.444Z,-0.15
2018-02-07T00:17:24.511Z,-0.17
2018-02-07T00:18:24.442Z,-0.18
2018-02-07T00:19:24.403Z,-0.22
2018-02-07T00:20:24.372Z,-0.25
2018-02-07T00:21:24.363Z,-0.25
2018-02-07T00:22:24.376Z,-0.33
2018-02-07T00:23:24.404Z,-0.33
2018-02-07T00:24:24.468Z,-0.36
2018-02-07T00:25:24.380Z,-0.37
2018-02-07T00:26:24.368Z,-0.33
2018-02-07T00:27:24.427Z,-0.36
2018-02-07T00:28:24.357Z,-0.33
2018-02-07T00:29:24.472Z,-0.35
2018-02-07T00:30:24.449Z,-0.33
2018-02-07T00:31:24.381Z,-0.33
2018-02-07T00:32:24.435Z,-0.35
2018-02-07T00:33:24.440Z,-0.36
2018-02-07T00:34:24.412Z,-0.37
2018-02-07T00:35:25.307Z,-0.37
2018-02-07T00:36:25.278Z,-0.36
2018-02-07T00:37:25.295Z,-0.37
2018-02-07T00:38:25.377Z,-0.36
2018-02-07T00:39:25.278Z,-0.37
2018-02-07T00:40:25.338Z,-0.36
2018-02-07T00:41:25.269Z,-0.37
2018-02-07T00:42:25.275Z,-0.35
2018-02-07T00:43:25.292Z,-0.35
2018-02-07T00:44:25.381Z,-0.37
2018-02-07T00:45:25.306Z,-0.37
2018-02-07T00:46:25.296Z,-0.36
2018-02-07T00:47:25.299Z,-0.4
2018-02-07T00:48:25.342Z,-0.42
2018-02-07T00:50:26.831Z,-0.43
2018-02-07T00:51:25.329Z,-0.43
2018-02-07T00:52:25.353Z,-0.43
2018-02-07T00:53:25.359Z,-0.42
2018-02-07T00:54:25.320Z,-0.45
2018-02-07T00:55:25.329Z,-0.43
2018-02-07T00:56:25.325Z,-0.45
2018-02-07T00:57:25.342Z,-0.45
2018-02-07T00:58:25.375Z,-0.46
2018-02-07T00:59:25.340Z,-0.47
2018-02-07T01:00:25.334Z,-0.47
2018-02-07T01:01:25.353Z,-0.45
2018-02-07T01:02:25.343Z,-0.45
2018-02-07T01:03:25.303Z,-0.47
2018-02-07T01:04:25.295Z,-0.46
2018-02-07T01:05:25.112Z,-0.49
2018-02-07T01:06:25.118Z,-0.49
2018-02-07T01:07:25.192Z,-0.46
2018-02-07T01:08:25.174Z,-0.49
2018-02-07T01:09:25.169Z,-0.49
2018-02-07T01:10:25.134Z,-0.5
2018-02-07T01:11:25.174Z,-0.53
2018-02-07T01:12:25.108Z,-0.51
2018-02-07T01:13:25.123Z,-0.56
2018-02-07T01:14:25.092Z,-0.54
2018-02-07T01:15:25.139Z,-0.54
2018-02-07T01:16:25.167Z,-0.54
2018-02-07T01:17:25.194Z,-0.54
2018-02-07T01:18:25.119Z,-0.56
2018-02-07T01:19:25.140Z,-0.56
2018-02-07T01:20:25.219Z,-0.56
2018-02-07T01:21:25.130Z,-0.57
2018-02-07T01:22:25.097Z,-0.61
2018-02-07T01:23:25.155Z,-0.61
2018-02-07T01:24:25.148Z,-0.61
2018-02-07T01:25:25.156Z,-0.63
2018-02-07T01:26:25.144Z,-0.64
2018-02-07T01:27:25.165Z,-0.65
2018-02-07T01:28:25.203Z,-0.68
2018-02-07T01:29:25.188Z,-0.7
2018-02-07T01:30:25.236Z,-0.68
2018-02-07T01:31:25.181Z,-0.71
2018-02-07T01:32:25.174Z,-0.68
2018-02-07T01:33:25.141Z,-0.73
2018-02-07T01:34:25.140Z,-0.71
2018-02-07T01:35:25.196Z,-0.74
2018-02-07T01:36:25.025Z,-0.75
2018-02-07T01:37:25.098Z,-0.77
2018-02-07T01:38:25.068Z,-0.75
2018-02-07T01:39:24.986Z,-0.81
2018-02-07T01:40:25.388Z,-0.85
2018-02-07T01:41:25.114Z,-0.84
2018-02-07T01:42:25.065Z,-0.82
2018-02-07T01:43:25.029Z,-0.82
2018-02-07T01:44:25.014Z,-0.84
2018-02-07T01:45:25.044Z,-0.84
2018-02-07T01:46:25.057Z,-0.85
2018-02-07T01:47:25.001Z,-0.85
2018-02-07T01:48:25.014Z,-0.86
2018-02-07T01:49:25.055Z,-0.88
2018-02-07T01:50:25.034Z,-0.86
2018-02-07T01:51:25.025Z,-0.86
2018-02-07T01:52:25.094Z,-0.85
2018-02-07T01:53:25.085Z,-0.86
2018-02-07T01:54:25.074Z,-0.85
2018-02-07T01:55:25.019Z,-0.85
2018-02-07T01:56:24.980Z,-0.82
2018-02-07T01:57:25.000Z,-0.86
2018-02-07T01:58:25.062Z,-0.85
2018-02-07T01:59:25.080Z,-0.85
2018-02-07T02:00:25.075Z,-0.89
2018-02-07T02:01:25.018Z,-0.91
2018-02-07T02:02:25.038Z,-0.91
2018-02-07T02:03:25.089Z,-0.93
2018-02-07T02:04:25.036Z,-0.93
2018-02-07T02:05:25.079Z,-0.93
2018-02-07T02:06:25.017Z,-0.95
2018-02-07T02:07:24.832Z,-0.96
2018-02-07T02:08:24.818Z,-0.99
2018-02-07T02:09:24.879Z,-0.96
2018-02-07T02:10:24.839Z,-0.96
2018-02-07T02:11:24.775Z,-1.01
2018-02-07T02:12:24.817Z,-0.98
2018-02-07T02:13:24.755Z,-1.01
2018-02-07T02:14:24.810Z,-1.03
2018-02-07T02:15:24.738Z,-1.02
2018-02-07T02:16:24.912Z,-1.03
2018-02-07T02:17:24.798Z,-1.03
2018-02-07T02:18:24.842Z,-1.03
2018-02-07T02:19:24.840Z,-1.02
2018-02-07T02:20:24.836Z,-1.07
2018-02-07T02:21:24.845Z,-1.07
2018-02-07T02:22:24.735Z,-1.07
2018-02-07T02:23:24.837Z,-1.03
2018-02-07T02:24:24.796Z,-1.05
2018-02-07T02:25:24.800Z,-1.05
2018-02-07T02:26:24.765Z,-1.02
2018-02-07T02:27:24.793Z,-1.02
2018-02-07T02:28:24.788Z,-1.01
2018-02-07T02:29:24.887Z,-1.03
2018-02-07T02:30:24.754Z,-1.02
2018-02-07T02:31:24.765Z,-1.03
2018-02-07T02:32:24.842Z,-1.02
2018-02-07T02:33:24.784Z,-1.03
2018-02-07T02:34:24.863Z,-1.03
2018-02-07T02:35:24.780Z,-1.08
2018-02-07T02:36:24.788Z,-1.07
2018-02-07T02:37:24.859Z,-1.05
2018-02-07T02:38:24.732Z,-1.07
2018-02-07T02:39:24.740Z,-1.08
2018-02-07T02:40:24.737Z,-1.08
2018-02-07T02:41:24.745Z,-1.03
2018-02-07T02:42:24.750Z,-1.07
2018-02-07T02:43:24.714Z,-1.07
2018-02-07T02:44:24.734Z,-1.08
2018-02-07T02:45:24.891Z,-1.09
2018-02-07T02:46:24.807Z,-1.08
2018-02-07T02:47:24.763Z,-1.07
2018-02-07T02:48:24.743Z,-1.08
2018-02-07T02:49:24.798Z,-1.07
2018-02-07T02:50:24.810Z,-1.09
2018-02-07T02:51:24.761Z,-1.11
2018-02-07T02:52:24.834Z,-1.11
2018-02-07T02:53:24.770Z,-1.12
2018-02-07T02:54:24.783Z,-1.11
2018-02-07T02:55:24.756Z,-1.15
2018-02-07T02:56:24.737Z,-1.18
2018-02-07T02:57:24.747Z,-1.23
2018-02-07T02:58:24.761Z,-1.19
2018-02-07T02:59:24.792Z,-1.22
2018-02-07T03:00:24.741Z,-1.23
2018-02-07T03:01:24.731Z,-1.19
2018-02-07T03:02:24.745Z,-1.22
2018-02-07T03:03:24.725Z,-1.2
2018-02-07T03:04:24.846Z,-1.2
2018-02-07T03:05:24.743Z,-1.19
2018-02-07T03:06:24.742Z,-1.19
2018-02-07T03:07:24.871Z,-1.19
2018-02-07T03:08:24.753Z,-1.22
2018-02-07T03:09:24.578Z,-1.22
2018-02-07T03:10:24.582Z,-1.2
2018-02-07T03:11:24.552Z,-1.22
2018-02-07T03:12:24.528Z,-1.23
2018-02-07T03:13:24.617Z,-1.23
2018-02-07T03:14:24.562Z,-1.23
2018-02-07T03:15:24.582Z,-1.25
2018-02-07T03:16:24.547Z,-1.25
2018-02-07T03:17:24.575Z,-1.26
2018-02-07T03:18:24.686Z,-1.26
2018-02-07T03:19:24.538Z,-1.25
2018-02-07T03:20:24.616Z,-1.26
2018-02-07T03:21:24.564Z,-1.26
2018-02-07T03:22:24.545Z,-1.29
2018-02-07T03:23:24.654Z,-1.29
2018-02-07T03:24:24.609Z,-1.3
2018-02-07T03:25:24.571Z,-1.32
2018-02-07T03:26:24.600Z,-1.32
2018-02-07T03:27:24.583Z,-1.35
2018-02-07T03:28:24.553Z,-1.35
2018-02-07T03:29:24.642Z,-1.33
2018-02-07T03:30:24.691Z,-1.36
2018-02-07T03:31:24.570Z,-1.35
2018-02-07T03:32:24.575Z,-1.36
2018-02-07T03:33:24.563Z,-1.36
2018-02-07T03:34:24.603Z,-1.36
2018-02-07T03:35:24.563Z,-1.36
2018-02-07T03:36:24.564Z,-1.35
2018-02-07T03:37:24.665Z,-1.33
2018-02-07T03:38:24.620Z,-1.33
2018-02-07T03:39:24.544Z,-1.36
2018-02-07T03:40:25.288Z,-1.4
2018-02-07T03:41:25.912Z,-1.4
2018-02-07T03:42:25.296Z,-1.43
2018-02-07T03:43:25.712Z,-1.41
2018-02-07T03:44:25.498Z,-1.46
2018-02-07T03:45:25.313Z,-1.43
2018-02-07T03:46:25.330Z,-1.41
2018-02-07T03:47:25.315Z,-1.41
2018-02-07T03:48:25.342Z,-1.4
2018-02-07T03:49:25.330Z,-1.41
2018-02-07T03:50:25.299Z,-1.41
2018-02-07T03:51:25.388Z,-1.4
2018-02-07T03:52:25.322Z,-1.39
2018-02-07T03:53:25.288Z,-1.39
2018-02-07T03:54:25.367Z,-1.4
2018-02-07T03:55:25.371Z,-1.43
2018-02-07T03:56:25.423Z,-1.44
2018-02-07T03:57:25.379Z,-1.44
2018-02-07T03:58:25.334Z,-1.46
2018-02-07T03:59:25.356Z,-1.44
2018-02-07T04:00:25.313Z,-1.47
2018-02-07T04:01:25.353Z,-1.46
2018-02-07T04:02:25.351Z,-1.48
2018-02-07T04:03:25.422Z,-1.48
2018-02-07T04:04:25.549Z,-1.48
2018-02-07T04:05:25.386Z,-1.5
2018-02-07T04:06:25.305Z,-1.5
2018-02-07T04:07:25.373Z,-1.5
2018-02-07T04:08:25.307Z,-1.5
2018-02-07T04:09:25.429Z,-1.51
2018-02-07T04:11:25.869Z,-1.54
2018-02-07T04:12:25.417Z,-1.54
2018-02-07T04:13:25.433Z,-1.53
2018-02-07T04:14:25.747Z,-1.53
2018-02-07T04:15:25.332Z,-1.51
2018-02-07T04:16:25.372Z,-1.51
2018-02-07T04:17:25.378Z,-1.51
2018-02-07T04:18:25.438Z,-1.51
2018-02-07T04:19:25.348Z,-1.53
2018-02-07T04:20:25.388Z,-1.54
2018-02-07T04:21:25.387Z,-1.51
2018-02-07T04:22:25.331Z,-1.55
2018-02-07T04:23:25.360Z,-1.57
2018-02-07T04:24:25.366Z,-1.6
2018-02-07T04:25:25.351Z,-1.61
2018-02-07T04:26:25.402Z,-1.61
2018-02-07T04:27:25.337Z,-1.61
2018-02-07T04:28:25.425Z,-1.6
2018-02-07T04:29:25.325Z,-1.64
2018-02-07T04:30:25.459Z,-1.67
2018-02-07T04:31:25.350Z,-1.67
2018-02-07T04:32:25.398Z,-1.7
2018-02-07T04:33:25.389Z,-1.67
2018-02-07T04:34:25.393Z,-1.68
2018-02-07T04:35:25.387Z,-1.68
2018-02-07T04:36:25.416Z,-1.65
2018-02-07T04:37:25.435Z,-1.65
2018-02-07T04:38:25.352Z,-1.67
2018-02-07T04:39:25.346Z,-1.67
2018-02-07T04:40:25.347Z,-1.67
2018-02-07T04:41:25.218Z,-1.65
2018-02-07T04:42:25.072Z,-1.68
2018-02-07T04:43:25.183Z,-1.7
2018-02-07T04:44:25.136Z,-1.7
2018-02-07T04:45:25.153Z,-1.72
2018-02-07T04:46:25.167Z,-1.74
2018-02-07T04:47:25.085Z,-1.72
2018-02-07T04:48:25.063Z,-1.74
2018-02-07T04:49:25.049Z,-1.74
2018-02-07T04:50:25.128Z,-1.76
2018-02-07T04:51:25.183Z,-1.74
2018-02-07T04:52:25.159Z,-1.72
2018-02-07T04:53:25.082Z,-1.75
2018-02-07T04:54:25.054Z,-1.76
2018-02-07T04:55:25.150Z,-1.78
2018-02-07T04:56:25.148Z,-1.75
2018-02-07T04:57:25.040Z,-1.74
2018-02-07T04:58:25.130Z,-1.79
2018-02-07T04:59:25.159Z,-1.76
2018-02-07T05:00:25.091Z,-1.76
2018-02-07T05:01:25.121Z,-1.76
2018-02-07T05:02:25.107Z,-1.76
2018-02-07T05:03:25.902Z,-1.78
2018-02-07T05:04:25.140Z,-1.79
2018-02-07T05:05:25.095Z,-1.82
2018-02-07T05:06:25.158Z,-1.81
2018-02-07T05:07:25.071Z,-1.83
2018-02-07T05:08:25.135Z,-1.85
2018-02-07T05:09:25.058Z,-1.89
2018-02-07T05:10:25.149Z,-1.95
2018-02-07T05:11:25.072Z,-1.95
2018-02-07T05:12:24.795Z,-1.96
2018-02-07T05:13:24.848Z,-1.98
2018-02-07T05:14:24.958Z,-1.99
2018-02-07T05:15:24.844Z,-2.02
2018-02-07T05:16:24.902Z,-1.99
2018-02-07T05:17:24.895Z,-2
2018-02-07T05:18:24.902Z,-2.02
2018-02-07T05:19:24.915Z,-2.09
2018-02-07T05:20:24.841Z,-2.11
2018-02-07T05:21:24.911Z,-2.1
2018-02-07T05:22:24.893Z,-2.11
2018-02-07T05:23:24.921Z,-2.1
2018-02-07T05:24:24.928Z,-2.1
2018-02-07T05:25:24.916Z,-2.1
2018-02-07T05:26:24.815Z,-2.1
2018-02-07T05:27:24.822Z,-2.06
2018-02-07T05:28:24.853Z,-2.03
2018-02-07T05:29:24.835Z,-2.05
2018-02-07T05:30:24.811Z,-2.09
2018-02-07T05:31:24.860Z,-2.06
2018-02-07T05:32:24.823Z,-2.06
2018-02-07T05:33:24.865Z,-2.1
2018-02-07T05:34:24.861Z,-2.1
2018-02-07T05:35:24.892Z,-2.13
2018-02-07T05:36:24.924Z,-2.13
2018-02-07T05:37:24.893Z,-2.14
2018-02-07T05:38:24.854Z,-2.16
2018-02-07T05:39:24.814Z,-2.2
2018-02-07T05:40:24.840Z,-2.17
2018-02-07T05:41:25.308Z,-2.16
2018-02-07T05:42:25.142Z,-2.16
2018-02-07T05:43:25.197Z,-2.16
2018-02-07T05:44:25.119Z,-2.14
2018-02-07T05:45:25.222Z,-2.16
2018-02-07T05:46:25.113Z,-2.13
2018-02-07T05:47:25.115Z,-2.14
2018-02-07T05:48:25.143Z,-2.13
2018-02-07T05:49:25.164Z,-2.13
2018-02-07T05:50:25.208Z,-2.16
2018-02-07T05:51:25.193Z,-2.16
2018-02-07T05:52:25.202Z,-2.16
2018-02-07T05:53:25.163Z,-2.13
2018-02-07T05:54:25.116Z,-2.13
2018-02-07T05:55:25.224Z,-2.1
2018-02-07T05:56:25.202Z,-2.1
2018-02-07T05:57:25.145Z,-2.11
2018-02-07T05:58:25.258Z,-2.11
2018-02-07T05:59:25.170Z,-2.11
2018-02-07T06:00:25.214Z,-2.13
2018-02-07T06:01:25.159Z,-2.13
2018-02-07T06:02:25.189Z,-2.11
2018-02-07T06:03:25.167Z,-2.13
2018-02-07T06:04:25.216Z,-2.1
2018-02-07T06:05:25.193Z,-2.14
2018-02-07T06:06:25.162Z,-2.13
2018-02-07T06:07:25.296Z,-2.13
2018-02-07T06:08:25.175Z,-2.14
2018-02-07T06:09:25.258Z,-2.14
2018-02-07T06:10:25.179Z,-2.13
2018-02-07T06:11:25.175Z,-2.11
2018-02-07T06:12:25.131Z,-2.13
2018-02-07T06:13:25.150Z,-2.13
2018-02-07T06:14:24.830Z,-2.1
2018-02-07T06:15:24.832Z,-2.11
2018-02-07T06:16:24.875Z,-2.13
2018-02-07T06:17:25.124Z,-2.14
2018-02-07T06:18:25.255Z,-2.13
2018-02-07T06:19:24.843Z,-2.11
2018-02-07T06:20:24.837Z,-2.11
2018-02-07T06:21:24.843Z,-2.11
2018-02-07T06:22:24.841Z,-2.11
2018-02-07T06:23:24.788Z,-2.11
2018-02-07T06:24:24.928Z,-2.13
2018-02-07T06:25:24.852Z,-2.13
2018-02-07T06:26:24.837Z,-2.13
2018-02-07T06:27:24.848Z,-2.19
2018-02-07T06:28:24.871Z,-2.21
2018-02-07T06:29:24.829Z,-2.24
2018-02-07T06:30:24.891Z,-2.23
2018-02-07T06:31:24.801Z,-2.21
2018-02-07T06:32:24.799Z,-2.23
2018-02-07T06:33:24.830Z,-2.23
2018-02-07T06:34:24.855Z,-2.26
2018-02-07T06:35:24.863Z,-2.36
2018-02-07T06:36:24.840Z,-2.34
2018-02-07T06:37:24.958Z,-2.37
2018-02-07T06:38:24.905Z,-2.36
2018-02-07T06:39:24.882Z,-2.36
2018-02-07T06:40:24.886Z,-2.38
2018-02-07T06:41:24.890Z,-2.38
2018-02-07T06:42:24.852Z,-2.36
2018-02-07T06:43:24.813Z,-2.33
2018-02-07T06:44:24.683Z,-2.34
2018-02-07T06:45:24.799Z,-2.33
2018-02-07T06:46:24.632Z,-2.33
2018-02-07T06:47:24.710Z,-2.33
2018-02-07T06:48:24.661Z,-2.36
2018-02-07T06:49:24.790Z,-2.43
2018-02-07T06:50:25.885Z,-2.44
2018-02-07T06:51:25.622Z,-2.45
2018-02-07T06:52:24.795Z,-2.45
2018-02-07T06:53:25.022Z,-2.43
2018-02-07T06:54:24.603Z,-2.43
2018-02-07T06:55:24.708Z,-2.41
2018-02-07T06:56:24.663Z,-2.38
2018-02-07T06:57:24.664Z,-2.21
2018-02-07T06:58:24.599Z,-2.06
2018-02-07T06:59:24.692Z,-2.06
2018-02-07T07:00:24.592Z,-2.11
2018-02-07T07:01:24.641Z,-2.11
2018-02-07T07:02:24.704Z,-2.14
2018-02-07T07:03:24.718Z,-2.16
2018-02-07T07:04:24.615Z,-2.2
2018-02-07T07:05:24.663Z,-2.24
2018-02-07T07:06:24.599Z,-2.27
2018-02-07T07:07:24.642Z,-2.26
2018-02-07T07:08:24.638Z,-2.26
2018-02-07T07:09:24.663Z,-2.28
2018-02-07T07:10:24.591Z,-2.27
2018-02-07T07:11:24.636Z,-2.28
2018-02-07T07:12:24.678Z,-2.31
2018-02-07T07:13:24.619Z,-2.33
2018-02-07T07:14:24.664Z,-2.31
2018-02-07T07:15:24.594Z,-2.3
2018-02-07T07:16:24.663Z,-2.33
2018-02-07T07:17:24.723Z,-2.36
2018-02-07T07:18:24.624Z,-2.36
2018-02-07T07:19:24.633Z,-2.36
2018-02-07T07:20:24.663Z,-2.37
2018-02-07T07:21:24.582Z,-2.37
2018-02-07T07:22:24.606Z,-2.36
2018-02-07T07:23:24.653Z,-2.37
2018-02-07T07:24:24.648Z,-2.36
2018-02-07T07:25:24.595Z,-2.36
2018-02-07T07:26:24.645Z,-2.33
2018-02-07T07:27:24.649Z,-2.33
2018-02-07T07:28:24.666Z,-2.33
2018-02-07T07:29:24.652Z,-2.28
2018-02-07T07:30:24.661Z,-2.28
2018-02-07T07:31:24.679Z,-2.3
2018-02-07T07:32:24.908Z,-2.31
2018-02-07T07:33:24.595Z,-2.28
2018-02-07T07:34:24.647Z,-2.3
2018-02-07T07:35:24.651Z,-2.3
2018-02-07T07:36:24.566Z,-2.31
2018-02-07T07:37:24.645Z,-2.31
2018-02-07T07:38:24.673Z,-2.33
2018-02-07T07:39:24.734Z,-2.31
2018-02-07T07:40:24.639Z,-2.31
2018-02-07T07:41:24.682Z,-2.3
2018-02-07T07:42:24.669Z,-2.28
2018-02-07T07:43:24.657Z,-2.28
2018-02-07T07:44:24.682Z,-2.31
2018-02-07T07:45:24.695Z,-2.3
2018-02-07T07:46:24.678Z,-2.31
2018-02-07T07:47:24.734Z,-2.31
2018-02-07T07:48:24.706Z,-2.27
2018-02-07T07:49:24.700Z,-2.3
2018-02-07T07:50:24.811Z,-2.27
2018-02-07T07:51:24.688Z,-2.3
2018-02-07T07:52:24.647Z,-2.27
2018-02-07T07:53:24.621Z,-2.27
2018-02-07T07:54:24.734Z,-2.36
2018-02-07T07:55:24.634Z,-2.33
2018-02-07T07:56:24.644Z,-2.31
2018-02-07T07:57:24.666Z,-2.28
2018-02-07T07:58:24.646Z,-2.28
2018-02-07T07:59:24.702Z,-2.26
2018-02-07T08:00:24.906Z,-2.26
2018-02-07T08:01:24.713Z,-2.24
2018-02-07T08:02:24.684Z,-2.21
2018-02-07T08:03:24.681Z,-2.21
2018-02-07T08:04:24.595Z,-2.2
2018-02-07T08:05:24.635Z,-2.21
2018-02-07T08:06:24.609Z,-2.17
2018-02-07T08:07:24.855Z,-2.19
2018-02-07T08:08:24.704Z,-2.14
2018-02-07T08:09:24.652Z,-2.17
2018-02-07T08:10:24.706Z,-2.13
2018-02-07T08:11:24.739Z,-2.14
2018-02-07T08:12:24.734Z,-2.11
2018-02-07T08:13:24.611Z,-2.1
2018-02-07T08:14:24.682Z,-2.06
2018-02-07T08:15:24.612Z,-2.06
2018-02-07T08:16:24.679Z,-2.07
2018-02-07T08:17:24.735Z,-2.06
2018-02-07T08:18:24.703Z,-2.05
2018-02-07T08:19:24.784Z,-2.05
2018-02-07T08:20:24.761Z,-2.05
2018-02-07T08:21:24.689Z,-2.03
2018-02-07T08:22:24.709Z,-2.03
2018-02-07T08:23:24.726Z,-2
2018-02-07T08:24:24.809Z,-2.02
2018-02-07T08:25:24.756Z,-2.02
2018-02-07T08:26:24.653Z,-2
2018-02-07T08:27:24.759Z,-1.99
2018-02-07T08:28:24.752Z,-1.98
2018-02-07T08:29:24.813Z,-1.93
2018-02-07T08:30:24.764Z,-1.95
2018-02-07T08:31:24.734Z,-1.91
2018-02-07T08:32:24.661Z,-1.91
2018-02-07T08:33:24.701Z,-1.85
2018-02-07T08:34:24.793Z,-1.86
2018-02-07T08:35:24.663Z,-1.83
2018-02-07T08:36:24.717Z,-1.82
2018-02-07T08:37:24.680Z,-1.81
2018-02-07T08:38:24.671Z,-1.79
2018-02-07T08:39:24.706Z,-1.74
2018-02-07T08:40:24.799Z,-1.75
2018-02-07T08:41:24.748Z,-1.72
2018-02-07T08:42:24.744Z,-1.72
2018-02-07T08:43:24.867Z,-1.68
2018-02-07T08:44:24.793Z,-1.67
2018-02-07T08:45:24.775Z,-1.63
2018-02-07T08:46:24.695Z,-1.61
2018-02-07T08:47:24.711Z,-1.57
2018-02-07T08:48:24.680Z,-1.53
2018-02-07T08:49:24.725Z,-1.51
2018-02-07T08:50:24.695Z,-1.47
2018-02-07T08:51:24.713Z,-1.47
2018-02-07T08:52:24.662Z,-1.46
2018-02-07T08:53:24.714Z,-1.41
2018-02-07T08:54:24.801Z,-1.39
2018-02-07T08:55:24.731Z,-1.36
2018-02-07T08:56:24.774Z,-1.33
2018-02-07T08:57:24.720Z,-1.3
2018-02-07T08:58:24.705Z,-1.27
2018-02-07T08:59:24.816Z,-1.23
2018-02-07T09:00:25.039Z,-1.22
2018-02-07T09:01:24.659Z,-1.23
2018-02-07T09:02:24.712Z,-1.15
2018-02-07T09:03:24.727Z,-1.12
2018-02-07T09:04:24.769Z,-1.09
2018-02-07T09:05:24.720Z,-1.08
2018-02-07T09:06:24.647Z,-1.05
2018-02-07T09:07:24.645Z,-1.05
2018-02-07T09:08:24.716Z,-1.05
2018-02-07T09:09:24.743Z,-1.09
2018-02-07T09:10:24.754Z,-1.05
2018-02-07T09:11:24.751Z,-1.05
2018-02-07T09:12:24.694Z,-1.02
2018-02-07T09:13:24.670Z,-0.99
2018-02-07T09:14:24.769Z,-0.95
2018-02-07T09:15:24.710Z,-0.93
2018-02-07T09:16:24.763Z,-0.91
2018-02-07T09:17:24.621Z,-0.91
2018-02-07T09:18:24.742Z,-0.89
2018-02-07T09:19:24.688Z,-0.88
2018-02-07T09:20:24.719Z,-0.86
2018-02-07T09:21:24.741Z,-0.91
2018-02-07T09:22:24.935Z,-0.89
2018-02-07T09:23:24.634Z,-0.91
2018-02-07T09:24:24.638Z,-0.92
2018-02-07T09:25:24.645Z,-0.91
2018-02-07T09:26:24.591Z,-0.91
2018-02-07T09:27:24.618Z,-0.86
2018-02-07T09:28:24.658Z,-0.86
2018-02-07T09:29:24.678Z,-0.88
2018-02-07T09:30:24.644Z,-0.85
2018-02-07T09:31:24.643Z,-0.85
2018-02-07T09:32:24.633Z,-0.82
2018-02-07T09:33:24.598Z,-0.81
2018-02-07T09:34:24.699Z,-0.78
2018-02-07T09:35:24.758Z,-0.78
2018-02-07T09:36:25.540Z,-0.75
2018-02-07T09:37:24.593Z,-0.7
2018-02-07T09:38:24.590Z,-0.67
2018-02-07T09:39:24.684Z,-0.65
2018-02-07T09:40:24.640Z,-0.61
2018-02-07T09:41:24.610Z,-0.6
2018-02-07T09:42:24.643Z,-0.6
2018-02-07T09:43:24.764Z,-0.56
2018-02-07T09:44:24.594Z,-0.54
2018-02-07T09:45:24.611Z,-0.53
2018-02-07T09:46:24.629Z,-0.49
2018-02-07T09:47:24.649Z,-0.43
2018-02-07T09:48:24.704Z,-0.43
2018-02-07T09:49:24.604Z,-0.4
2018-02-07T09:50:24.565Z,-0.4
2018-02-07T09:51:24.633Z,-0.39
2018-02-07T09:52:24.547Z,-0.37
2018-02-07T09:53:24.605Z,-0.36
2018-02-07T09:54:24.637Z,-0.36
2018-02-07T09:55:24.640Z,-0.35
2018-02-07T09:56:24.596Z,-0.33
2018-02-07T09:57:24.619Z,-0.32
2018-02-07T09:58:24.600Z,-0.33
2018-02-07T09:59:24.629Z,-0.39
2018-02-07T10:00:24.602Z,-0.45
2018-02-07T10:01:24.591Z,-0.47
2018-02-07T10:02:24.597Z,-0.5
2018-02-07T10:03:24.550Z,-0.51
2018-02-07T10:04:24.591Z,-0.47
2018-02-07T10:05:24.620Z,-0.45
2018-02-07T10:06:24.624Z,-0.49
2018-02-07T10:07:24.559Z,-0.49
2018-02-07T10:08:24.604Z,-0.47
2018-02-07T10:09:24.654Z,-0.46
2018-02-07T10:10:24.546Z,-0.47
2018-02-07T10:11:24.713Z,-0.5
2018-02-07T10:12:24.617Z,-0.49
2018-02-07T10:13:24.602Z,-0.47
2018-02-07T10:14:24.684Z,-0.49
2018-02-07T10:15:24.646Z,-0.46
2018-02-07T10:16:24.631Z,-0.45
2018-02-07T10:17:24.690Z,-0.43
2018-02-07T10:18:24.666Z,-0.45
2018-02-07T10:19:24.690Z,-0.43
2018-02-07T10:20:24.624Z,-0.46
2018-02-07T10:21:24.612Z,-0.43
2018-02-07T10:22:24.612Z,-0.42
2018-02-07T10:23:24.586Z,-0.37
2018-02-07T10:24:24.724Z,-0.43
2018-02-07T10:25:24.580Z,-0.43
2018-02-07T10:26:24.610Z,-0.47
2018-02-07T10:27:24.654Z,-0.46
2018-02-07T10:28:24.623Z,-0.4
2018-02-07T10:29:24.654Z,-0.45
2018-02-07T10:30:24.642Z,-0.42
2018-02-07T10:31:24.625Z,-0.46
2018-02-07T10:32:24.597Z,-0.45
2018-02-07T10:33:24.615Z,-0.43
2018-02-07T10:34:24.551Z,-0.37
2018-02-07T10:35:24.583Z,-0.29
2018-02-07T10:36:24.663Z,-0.33
2018-02-07T10:37:24.619Z,-0.28
2018-02-07T10:38:24.645Z,-0.29
2018-02-07T10:39:24.626Z,-0.22
2018-02-07T10:40:24.638Z,-0.21
2018-02-07T10:41:24.648Z,-0.21
2018-02-07T10:42:24.674Z,-0.18
2018-02-07T10:43:24.604Z,-0.12
2018-02-07T10:44:24.672Z,-0.07
2018-02-07T10:45:24.657Z,-0.02
2018-02-07T10:46:24.634Z,-0.04
2018-02-07T10:47:24.630Z,0.03
2018-02-07T10:48:24.697Z,0.09
2018-02-07T10:49:24.753Z,0.16
2018-02-07T10:50:24.745Z,0.1
2018-02-07T10:51:24.717Z,0.01
2018-02-07T10:52:24.693Z,0.01
2018-02-07T10:53:24.734Z,0.03
2018-02-07T10:54:24.753Z,-0.02
2018-02-07T10:55:24.630Z,-0.05
2018-02-07T10:56:24.662Z,-0.01
2018-02-07T10:57:24.692Z,-0.02
2018-02-07T10:58:24.850Z,-0.02
2018-02-07T10:59:24.761Z,0.01
2018-02-07T11:00:24.746Z,0.08
2018-02-07T11:01:24.709Z,0.05
2018-02-07T11:02:24.747Z,0.06
2018-02-07T11:03:24.970Z,0.15
2018-02-07T11:04:24.708Z,0.18
2018-02-07T11:05:24.711Z,0.29
2018-02-07T11:06:24.780Z,0.27
2018-02-07T11:07:24.727Z,0.26
2018-02-07T11:08:24.699Z,0.32
2018-02-07T11:09:24.710Z,0.33
2018-02-07T11:10:24.678Z,0.37
2018-02-07T11:11:24.693Z,0.43
2018-02-07T11:12:24.712Z,0.37
2018-02-07T11:13:24.700Z,0.4
2018-02-07T11:14:24.657Z,0.38
2018-02-07T11:15:24.672Z,0.46
2018-02-07T11:16:24.646Z,0.48
2018-02-07T11:17:24.772Z,0.5
2018-02-07T11:18:24.720Z,0.53
2018-02-07T11:19:24.692Z,0.44
2018-02-07T11:20:24.515Z,0.46
2018-02-07T11:21:24.512Z,0.53
2018-02-07T11:22:24.488Z,0.55
2018-02-07T11:23:24.497Z,0.64
2018-02-07T11:24:24.500Z,0.69
2018-02-07T11:25:24.578Z,0.68
2018-02-07T11:26:24.493Z,0.65
2018-02-07T11:27:24.494Z,0.68
2018-02-07T11:28:24.537Z,0.65
2018-02-07T11:29:24.577Z,0.74
2018-02-07T11:30:24.450Z,0.78
2018-02-07T11:31:24.521Z,0.75
2018-02-07T11:32:24.511Z,0.76
2018-02-07T11:33:24.503Z,0.74
2018-02-07T11:34:24.478Z,0.81
2018-02-07T11:35:24.451Z,0.86
2018-02-07T11:36:24.549Z,0.88
2018-02-07T11:37:24.536Z,0.89
2018-02-07T11:38:24.477Z,0.93
2018-02-07T11:39:24.523Z,0.95
2018-02-07T11:40:24.528Z,1.02
2018-02-07T11:41:24.517Z,1.07
2018-02-07T11:42:24.444Z,1.11
2018-02-07T11:43:24.483Z,1.04
2018-02-07T11:44:24.524Z,1.02
2018-02-07T11:45:24.620Z,1.06
2018-02-07T11:46:24.482Z,1.09
2018-02-07T11:47:24.568Z,1.09
2018-02-07T11:48:24.491Z,1.1
2018-02-07T11:49:24.508Z,1.19
2018-02-07T11:50:24.577Z,1.13
2018-02-07T11:51:24.482Z,1.19
2018-02-07T11:52:24.520Z,1.24
2018-02-07T11:53:24.523Z,1.3
2018-02-07T11:54:24.584Z,1.33
2018-02-07T11:55:24.489Z,1.36
2018-02-07T11:56:24.496Z,1.27
2018-02-07T11:57:24.543Z,1.37
2018-02-07T11:58:24.499Z,1.36
2018-02-07T11:59:24.589Z,1.36
2018-02-07T12:00:24.560Z,1.27
2018-02-07T12:01:24.475Z,1.36
2018-02-07T12:02:24.474Z,1.38
2018-02-07T12:03:24.470Z,1.37
2018-02-07T12:04:24.566Z,1.45
2018-02-07T12:05:24.508Z,1.51
2018-02-07T12:06:24.501Z,1.45
2018-02-07T12:07:24.472Z,1.51
2018-02-07T12:08:24.512Z,1.48
2018-02-07T12:09:24.532Z,1.55
2018-02-07T12:10:24.595Z,1.5
2018-02-07T12:11:24.514Z,1.53
2018-02-07T12:12:24.571Z,1.51
2018-02-07T12:13:24.549Z,1.58
2018-02-07T12:14:24.566Z,1.59
2018-02-07T12:15:24.582Z,1.65
2018-02-07T12:16:24.615Z,1.59
2018-02-07T12:17:24.497Z,1.62
2018-02-07T12:18:24.471Z,1.73
2018-02-07T12:19:24.520Z,1.76
2018-02-07T12:20:24.480Z,1.75
2018-02-07T12:21:24.514Z,1.78
2018-02-07T12:22:25.327Z,1.72
2018-02-07T12:23:25.320Z,1.75
2018-02-07T12:24:25.362Z,1.68
2018-02-07T12:25:25.371Z,1.75
2018-02-07T12:26:25.414Z,1.75
2018-02-07T12:27:25.330Z,1.73
2018-02-07T12:28:25.379Z,1.71
2018-02-07T12:29:25.760Z,1.65
2018-02-07T12:30:25.321Z,1.72
2018-02-07T12:31:25.557Z,1.75
2018-02-07T12:32:25.302Z,1.76
2018-02-07T12:33:25.309Z,1.73
2018-02-07T12:34:25.325Z,1.78
2018-02-07T12:35:25.313Z,1.82
2018-02-07T12:36:25.322Z,1.94
2018-02-07T12:37:25.409Z,2.04
2018-02-07T12:38:25.401Z,1.99
2018-02-07T12:39:25.352Z,2.01
2018-02-07T12:40:25.302Z,2.09
2018-02-07T12:41:25.376Z,2.09
2018-02-07T12:42:25.325Z,2.11
2018-02-07T12:43:25.381Z,2.18
2018-02-07T12:44:25.315Z,2.18
2018-02-07T12:45:25.331Z,2.09
2018-02-07T12:46:25.372Z,2.04
2018-02-07T12:47:25.415Z,2.13
2018-02-07T12:48:25.412Z,2.09
2018-02-07T12:49:25.388Z,2.18
2018-02-07T12:50:25.382Z,2.18
2018-02-07T12:51:25.345Z,2.1
2018-02-07T12:52:25.573Z,2.14
2018-02-07T12:53:25.253Z,2.21
2018-02-07T12:54:25.296Z,2.24
2018-02-07T12:55:25.305Z,2.31
2018-02-07T12:56:25.322Z,2.34
2018-02-07T12:57:25.259Z,2.37
2018-02-07T12:58:25.347Z,2.38
2018-02-07T12:59:25.240Z,2.43
2018-02-07T13:00:25.247Z,2.43
2018-02-07T13:01:25.376Z,2.44